createdAt,value
2019-06-07T00:02:01.213Z,21.17
2019-06-07T00:04:31.959Z,20.13
2019-06-07T00:07:02.748Z,20.57
2019-06-07T00:09:33.650Z,21.60
2019-06-07T00:12:04.842Z,21.03
2019-06-07T00:14:34.975Z,21.07
2019-06-07T00:17:05.526Z,21.23
2019-06-07T00:19:36.356Z,21.93
2019-06-07T00:22:16.497Z,20.70
2019-06-07T00:24:39.338Z,22.13
2019-06-07T00:27:11.616Z,21.63
2019-06-07T00:29:42.840Z,23.10
2019-06-07T00:32:15.010Z,24.63
2019-06-07T00:34:45.698Z,25.47
2019-06-07T00:37:19.758Z,25.23
2019-06-07T00:40:12.684Z,26.43
2019-06-07T00:42:23.967Z,25.67
2019-06-07T00:44:53.266Z,28.70
2019-06-07T00:47:25.526Z,26.27
2019-06-07T00:49:55.545Z,30.67
2019-06-07T00:54:57.896Z,28.30
2019-06-07T00:57:28.381Z,30.10
2019-06-07T00:59:59.230Z,30.23
2019-06-07T01:02:31.584Z,31.53
2019-06-07T01:05:01.759Z,31.33
2019-06-07T01:07:33.928Z,32.20
2019-06-07T01:10:03.775Z,31.13
2019-06-07T01:12:33.754Z,31.03
2019-06-07T01:15:04.716Z,31.40
2019-06-07T01:17:49.979Z,30.50
2019-06-07T01:20:08.273Z,29.17
2019-06-07T01:22:38.971Z,29.70
2019-06-07T01:25:09.403Z,30.07
2019-06-07T01:27:40.304Z,30.10
2019-06-07T01:30:10.487Z,30.00
2019-06-07T01:32:40.684Z,31.43
2019-06-07T01:35:11.634Z,29.73
2019-06-07T01:37:42.134Z,29.57
2019-06-07T01:40:13.965Z,29.93
2019-06-07T01:42:44.167Z,30.07
2019-06-07T01:45:19.464Z,31.53
2019-06-07T01:47:49.477Z,29.73
2019-06-07T01:50:22.595Z,30.40
2019-06-07T01:52:51.664Z,30.83
2019-06-07T01:55:24.942Z,30.73
2019-06-07T01:57:54.016Z,31.30
2019-06-07T02:00:47.939Z,30.83
2019-06-07T02:03:21.395Z,28.90
2019-06-07T02:05:51.125Z,30.67
2019-06-07T02:08:22.210Z,31.47
2019-06-07T02:10:53.731Z,31.40
2019-06-07T02:13:27.829Z,29.13
2019-06-07T02:15:56.982Z,32.37
2019-06-07T02:18:29.122Z,31.00
2019-06-07T02:20:59.201Z,29.20
2019-06-07T02:23:33.065Z,30.80
2019-06-07T02:26:01.529Z,31.20
2019-06-07T02:28:44.727Z,30.83
2019-06-07T02:31:04.728Z,31.03
2019-06-07T02:33:40.160Z,28.97
2019-06-07T02:36:07.562Z,29.53
2019-06-07T02:38:38.384Z,32.03
2019-06-07T02:41:09.500Z,32.10
2019-06-07T02:43:39.960Z,32.50
2019-06-07T02:46:31.946Z,32.20
2019-06-07T02:48:55.955Z,31.43
2019-06-07T02:51:32.637Z,32.57
2019-06-07T02:53:59.175Z,33.90
2019-06-07T02:56:55.621Z,34.70
2019-06-07T02:59:01.652Z,31.17
2019-06-07T03:01:38.548Z,32.93
2019-06-07T03:04:05.458Z,34.90
2019-06-07T03:06:40.456Z,37.33
2019-06-07T03:09:08.816Z,37.73
2019-06-07T03:11:42.122Z,37.97
2019-06-07T03:14:13.747Z,40.83
2019-06-07T03:16:52.997Z,40.00
2019-06-07T03:19:31.374Z,40.73
2019-06-07T03:22:04.759Z,36.50
2019-06-07T03:24:41.271Z,37.17
2019-06-07T03:27:34.107Z,39.20
2019-06-07T03:29:42.178Z,36.53
2019-06-07T03:32:13.123Z,36.77
2019-06-07T03:34:44.141Z,35.57
2019-06-07T03:37:15.066Z,37.40
2019-06-07T03:39:45.507Z,36.57
2019-06-07T03:42:16.059Z,44.23
2019-06-07T03:44:45.869Z,36.70
2019-06-07T03:47:16.422Z,38.63
2019-06-07T03:49:47.690Z,39.90
2019-06-07T03:52:18.666Z,38.13
2019-06-07T03:54:49.633Z,33.60
2019-06-07T03:57:21.789Z,32.03
2019-06-07T03:59:52.327Z,29.13
2019-06-07T04:02:22.128Z,29.03
2019-06-07T04:04:52.717Z,22.93
2019-06-07T04:07:23.919Z,22.37
2019-06-07T04:09:57.125Z,20.50
2019-06-07T04:12:28.550Z,21.40
2019-06-07T04:15:00.323Z,20.43
2019-06-07T04:17:32.701Z,20.70
2019-06-07T04:20:03.507Z,20.20
2019-06-07T04:22:38.869Z,19.10
2019-06-07T04:25:08.967Z,18.70
2019-06-07T04:27:41.046Z,20.10
2019-06-07T04:30:13.808Z,19.40
2019-06-07T04:32:44.978Z,18.20
2019-06-07T04:35:15.713Z,18.30
2019-06-07T04:37:46.909Z,17.70
2019-06-07T04:40:17.679Z,18.00
2019-06-07T04:42:48.959Z,16.63
2019-06-07T04:45:33.765Z,15.73
2019-06-07T04:47:51.325Z,15.53
2019-06-07T04:50:21.227Z,15.70
2019-06-07T04:52:51.189Z,14.07
2019-06-07T04:55:20.995Z,15.20
2019-06-07T04:57:51.050Z,13.90
2019-06-07T05:00:48.676Z,14.80
2019-06-07T05:02:55.321Z,14.43
2019-06-07T05:05:26.210Z,13.07
2019-06-07T05:07:56.859Z,12.60
2019-06-07T05:10:27.887Z,11.37
2019-06-07T05:12:58.863Z,12.87
2019-06-07T05:15:29.789Z,12.80
2019-06-07T05:18:00.389Z,10.40
2019-06-07T05:20:30.229Z,11.50
2019-06-07T05:23:00.964Z,11.83
2019-06-07T05:25:33.585Z,12.30
2019-06-07T05:28:04.383Z,14.83
2019-06-07T05:31:07.839Z,14.60
2019-06-07T05:33:13.362Z,14.10
2019-06-07T05:35:44.449Z,15.83
2019-06-07T05:38:15.585Z,14.40
2019-06-07T05:40:48.531Z,15.10
2019-06-07T05:43:26.615Z,15.63
2019-06-07T05:45:57.531Z,15.27
2019-06-07T05:48:27.438Z,13.50
2019-06-07T05:50:58.226Z,14.77
2019-06-07T05:53:28.399Z,15.50
2019-06-07T05:55:58.497Z,13.97
2019-06-07T05:58:29.299Z,14.77
2019-06-07T06:01:41.057Z,14.47
2019-06-07T06:03:35.049Z,12.53
2019-06-07T06:06:05.884Z,13.60
2019-06-07T06:08:39.236Z,15.70
2019-06-07T06:11:08.460Z,15.57
2019-06-07T06:14:04.673Z,12.03
2019-06-07T06:16:10.982Z,12.53
2019-06-07T06:18:44.326Z,11.30
2019-06-07T06:21:19.653Z,12.37
2019-06-07T06:23:50.748Z,13.43
2019-06-07T06:26:20.762Z,13.97
2019-06-07T06:28:51.623Z,12.50
2019-06-07T06:31:22.398Z,12.77
2019-06-07T06:33:52.957Z,12.57
2019-06-07T06:36:23.696Z,12.87
2019-06-07T06:38:55.578Z,13.03
2019-06-07T06:41:27.800Z,12.90
2019-06-07T06:43:57.748Z,11.80
2019-06-07T06:46:38.580Z,10.90
2019-06-07T06:49:00.552Z,12.20
2019-06-07T06:51:31.564Z,12.10
2019-06-07T06:54:02.435Z,12.00
2019-06-07T06:56:39.685Z,11.57
2019-06-07T06:59:37.124Z,12.97
2019-06-07T07:01:44.888Z,13.47
2019-06-07T07:04:15.659Z,12.77
2019-06-07T07:06:48.029Z,13.57
2019-06-07T07:09:19.024Z,11.33
2019-06-07T07:12:06.344Z,11.77
2019-06-07T07:14:22.764Z,11.50
2019-06-07T07:16:56.021Z,10.73
2019-06-07T07:19:25.181Z,11.40
2019-06-07T07:21:55.591Z,10.57
2019-06-07T07:24:25.453Z,11.53
2019-06-07T07:26:58.540Z,11.23
2019-06-07T07:29:29.015Z,11.60
2019-06-07T07:31:59.684Z,11.17
2019-06-07T07:34:35.516Z,11.00
2019-06-07T07:37:03.174Z,11.83
2019-06-07T07:39:33.854Z,10.90
2019-06-07T07:42:20.052Z,11.10
2019-06-07T07:44:37.891Z,10.87
2019-06-07T07:47:09.792Z,10.20
2019-06-07T07:49:40.547Z,9.97
2019-06-07T07:52:11.103Z,9.33
2019-06-07T07:54:41.224Z,10.83
2019-06-07T07:57:11.730Z,10.83
2019-06-07T08:00:00.487Z,10.27
2019-06-07T08:02:15.394Z,10.13
2019-06-07T08:05:20.651Z,9.40
2019-06-07T08:07:17.929Z,9.17
2019-06-07T08:09:50.511Z,7.17
2019-06-07T08:12:19.633Z,8.60
2019-06-07T08:14:51.102Z,6.83
2019-06-07T08:17:20.964Z,8.73
2019-06-07T08:19:52.315Z,7.50
2019-06-07T08:22:24.124Z,7.13
2019-06-07T08:24:56.003Z,8.20
2019-06-07T08:27:27.119Z,7.23
2019-06-07T08:30:15.778Z,7.63
2019-06-07T08:32:31.551Z,7.47
2019-06-07T08:35:06.512Z,6.87
2019-06-07T08:38:14.027Z,6.43
2019-06-07T08:40:09.104Z,6.90
2019-06-07T08:42:59.773Z,8.13
2019-06-07T08:45:16.694Z,6.73
2019-06-07T08:47:47.020Z,7.70
2019-06-07T08:50:20.596Z,7.77
2019-06-07T08:52:54.802Z,7.77
